createdAt,value
2023-04-04T11:35:46.685Z,5228.00
2023-04-04T11:36:46.597Z,5252.00
2023-04-04T11:37:46.569Z,5276.00
2023-04-04T11:38:46.555Z,5312.00
2023-04-04T11:39:46.531Z,5340.00
2023-04-04T11:40:46.493Z,5368.00
2023-04-04T11:41:46.482Z,5400.00
2023-04-04T11:42:46.484Z,5440.00
2023-04-04T11:43:46.456Z,5468.00
2023-04-04T11:44:46.407Z,5500.00
2023-04-04T11:45:46.439Z,5528.00
2023-04-04T11:46:46.386Z,5560.00
2023-04-04T11:47:46.426Z,5608.00
2023-04-04T11:48:46.345Z,5648.00
2023-04-04T11:49:46.334Z,5696.00
2023-04-04T11:50:46.303Z,5744.00
2023-04-04T11:51:46.302Z,5804.00
2023-04-04T11:52:46.310Z,5860.00
2023-04-04T11:53:46.254Z,5924.00
2023-04-04T11:54:46.232Z,6000.00
2023-04-04T11:55:46.217Z,6076.00
2023-04-04T11:56:46.188Z,6160.00
2023-04-04T11:57:46.188Z,6236.00
2023-04-04T11:58:46.152Z,6328.00
2023-04-04T11:59:46.203Z,6440.00
2023-04-04T12:00:46.108Z,6552.00
2023-04-04T12:01:46.103Z,6708.00
2023-04-04T12:02:46.138Z,6888.00
2023-04-04T12:03:46.110Z,7184.00
2023-04-04T12:04:46.086Z,7700.00
2023-04-04T12:05:46.088Z,8432.00
2023-04-04T12:06:45.994Z,9240.00
2023-04-04T12:07:45.991Z,10188.00
2023-04-04T12:08:45.974Z,11484.00
2023-04-04T12:09:45.978Z,14208.00
2023-04-04T12:10:45.952Z,18080.00
2023-04-04T12:11:45.920Z,22976.00
2023-04-04T12:12:45.918Z,29888.00
2023-04-04T12:13:45.901Z,37216.00
2023-04-04T12:14:45.887Z,44832.00
2023-04-04T12:15:45.880Z,48608.00
2023-04-04T12:16:45.824Z,52160.00
2023-04-04T12:17:46.044Z,58688.00
2023-04-04T12:18:45.802Z,56448.00
2023-04-04T12:19:45.797Z,55904.00
2023-04-04T12:20:45.762Z,60960.00
2023-04-04T12:21:45.763Z,59680.00
2023-04-04T12:22:45.746Z,60128.00
2023-04-04T12:23:45.733Z,62944.00
2023-04-04T12:24:45.691Z,59072.00
2023-04-04T12:25:45.680Z,53312.00
2023-04-04T12:26:45.678Z,54464.00
2023-04-04T12:27:45.656Z,57216.00
2023-04-04T12:28:45.644Z,59264.00
2023-04-04T12:29:45.631Z,60864.00
2023-04-04T12:30:45.607Z,60800.00
2023-04-04T12:31:45.622Z,61120.00
2023-04-04T12:32:45.605Z,66368.00
2023-04-04T12:33:45.574Z,67808.00
2023-04-04T12:34:48.818Z,64160.00
2023-04-04T12:35:45.538Z,62720.00
2023-04-04T12:36:45.492Z,62112.00
2023-04-04T12:37:45.498Z,62592.00
2023-04-04T12:38:45.480Z,70208.00
2023-04-04T12:39:45.455Z,73248.00
2023-04-04T12:40:45.431Z,73344.00
2023-04-04T12:41:45.439Z,68864.00
2023-04-04T12:42:45.434Z,64544.00
2023-04-04T12:43:45.417Z,66624.00
2023-04-04T12:44:45.376Z,66752.00
2023-04-04T12:45:45.379Z,69472.00
2023-04-04T12:46:47.830Z,70400.00
2023-04-04T12:47:45.351Z,67680.00
2023-04-04T12:48:45.316Z,68064.00
2023-04-04T12:49:45.360Z,67872.00
2023-04-04T12:50:45.279Z,68160.00
2023-04-04T12:51:45.278Z,67520.00
2023-04-04T12:52:46.138Z,71392.00
2023-04-04T12:53:45.227Z,74880.00
2023-04-04T12:54:46.989Z,69888.00
2023-04-04T12:55:45.218Z,71872.00
2023-04-04T12:56:45.208Z,75968.00
2023-04-04T12:57:45.178Z,78112.00
2023-04-04T12:58:47.105Z,80064.00
2023-04-04T12:59:45.157Z,75360.00
2023-04-04T13:00:45.136Z,72160.00
2023-04-04T13:01:45.145Z,72160.00
2023-04-04T13:02:45.150Z,71936.00
2023-04-04T13:03:45.125Z,71712.00
2023-04-04T13:04:45.099Z,72256.00
2023-04-04T13:05:45.071Z,71232.00
2023-04-04T13:06:45.066Z,71328.00
2023-04-04T13:07:45.085Z,71136.00
2023-04-04T13:08:45.018Z,71072.00
2023-04-04T13:09:45.011Z,69760.00
2023-04-04T13:10:44.986Z,73376.00
2023-04-04T13:11:44.982Z,73856.00
2023-04-04T13:12:44.958Z,72000.00
2023-04-04T13:13:45.029Z,68352.00
2023-04-04T13:14:44.931Z,68736.00
2023-04-04T13:15:44.923Z,70336.00
2023-04-04T13:16:44.920Z,66080.00
2023-04-04T13:17:44.915Z,62688.00
2023-04-04T13:18:44.913Z,62144.00
2023-04-04T13:19:44.878Z,66880.00
2023-04-04T13:20:44.874Z,73568.00
2023-04-04T13:21:44.826Z,76416.00
2023-04-04T13:22:44.829Z,68672.00
2023-04-04T13:23:44.839Z,64416.00
2023-04-04T13:24:44.803Z,67808.00
2023-04-04T13:25:44.790Z,76448.00
2023-04-04T13:26:44.805Z,73280.00
2023-04-04T13:27:44.786Z,64384.00
2023-04-04T13:28:44.797Z,69120.00
2023-04-04T13:29:44.764Z,63040.00
2023-04-04T13:30:44.773Z,75520.00
2023-04-04T13:31:44.763Z,79040.00
2023-04-04T13:32:44.803Z,81216.00
2023-04-04T13:33:44.716Z,83136.00
2023-04-04T13:34:44.702Z,82720.00
2023-04-04T13:35:44.685Z,84384.00
2023-04-04T13:36:44.753Z,85248.00
2023-04-04T13:37:44.668Z,83168.00
2023-04-04T13:38:44.674Z,84768.00
2023-04-04T13:39:44.690Z,84288.00
2023-04-04T13:40:44.674Z,82912.00
2023-04-04T13:41:44.619Z,81984.00
2023-04-04T13:42:44.618Z,83968.00
2023-04-04T13:43:44.596Z,83872.00
2023-04-04T13:44:44.631Z,85088.00
2023-04-04T13:45:44.623Z,60640.00
2023-04-04T13:46:44.594Z,40320.00
2023-04-04T13:47:44.570Z,50112.00
2023-04-04T13:48:44.552Z,76608.00
2023-04-04T13:49:44.543Z,58496.00
2023-04-04T13:50:44.537Z,79520.00
2023-04-04T13:51:44.509Z,80192.00
2023-04-04T13:52:45.230Z,80224.00
2023-04-04T13:53:44.505Z,80480.00
2023-04-04T13:54:44.515Z,78912.00
2023-04-04T13:56:01.519Z,77376.00
2023-04-04T13:56:44.461Z,76288.00
2023-04-04T13:57:44.458Z,75264.00
2023-04-04T13:58:44.476Z,75424.00
2023-04-04T13:59:44.439Z,75840.00
2023-04-04T14:00:44.415Z,75392.00
2023-04-04T14:01:44.419Z,74784.00
2023-04-04T14:02:44.481Z,72704.00
2023-04-04T14:03:44.404Z,71616.00
2023-04-04T14:04:44.408Z,72576.00
2023-04-04T14:05:44.374Z,73632.00
2023-04-04T14:06:44.375Z,71840.00
2023-04-04T14:07:44.335Z,71808.00
2023-04-04T14:08:44.330Z,69888.00
2023-04-04T14:09:44.326Z,69408.00
2023-04-04T14:10:44.307Z,70272.00
2023-04-04T14:11:44.311Z,69408.00
2023-04-04T14:12:44.303Z,69920.00
2023-04-04T14:13:44.286Z,67392.00
2023-04-04T14:14:44.297Z,65312.00
2023-04-04T14:15:44.507Z,65312.00
2023-04-04T14:16:44.267Z,65344.00
2023-04-04T14:17:44.247Z,65408.00
2023-04-04T14:18:44.226Z,62496.00
2023-04-04T14:19:44.241Z,61568.00
2023-04-04T14:20:44.229Z,61472.00
2023-04-04T14:21:44.220Z,62784.00
2023-04-04T14:22:44.206Z,61248.00
2023-04-04T14:23:44.175Z,60288.00
2023-04-04T14:24:44.200Z,59360.00
2023-04-04T14:25:44.180Z,58432.00
2023-04-04T14:26:44.169Z,56608.00
2023-04-04T14:27:44.132Z,59584.00
2023-04-04T14:28:44.132Z,60160.00
2023-04-04T14:29:44.148Z,58720.00
2023-04-04T14:30:44.118Z,58240.00
2023-04-04T14:31:44.201Z,57440.00
2023-04-04T14:32:44.187Z,56000.00
2023-04-04T14:33:44.095Z,55040.00
2023-04-04T14:34:44.088Z,55232.00
2023-04-04T14:35:44.138Z,54688.00
2023-04-04T14:36:44.100Z,55232.00
2023-04-04T14:37:44.067Z,55328.00
2023-04-04T14:38:44.042Z,55904.00
2023-04-04T14:39:44.043Z,55520.00
2023-04-04T14:40:44.044Z,48576.00
2023-04-04T14:41:44.030Z,54368.00
2023-04-04T14:42:44.010Z,51040.00
2023-04-04T14:43:44.018Z,48160.00
2023-04-04T14:44:44.021Z,49120.00
2023-04-04T14:45:43.995Z,51264.00
2023-04-04T14:46:44.049Z,50464.00
2023-04-04T14:47:44.007Z,50688.00
2023-04-04T14:48:43.961Z,47008.00
2023-04-04T14:49:43.984Z,40128.00
2023-04-04T14:50:43.966Z,38976.00
2023-04-04T14:51:43.932Z,24864.00
2023-04-04T14:52:43.931Z,42688.00
2023-04-04T14:53:43.939Z,48000.00
2023-04-04T14:54:43.925Z,33376.00
2023-04-04T14:55:43.924Z,46048.00
2023-04-04T14:56:43.920Z,43712.00
2023-04-04T14:58:01.400Z,33632.00
2023-04-04T14:58:43.901Z,42784.00
2023-04-04T14:59:43.878Z,45504.00
2023-04-04T15:00:43.878Z,41760.00
2023-04-04T15:01:44.006Z,43808.00
2023-04-04T15:02:43.890Z,28160.00
2023-04-04T15:03:43.856Z,37088.00
2023-04-04T15:04:43.981Z,41664.00
2023-04-04T15:05:44.076Z,29536.00
2023-04-04T15:06:43.827Z,43392.00
2023-04-04T15:07:43.801Z,43232.00
2023-04-04T15:08:43.837Z,42464.00
2023-04-04T15:09:43.817Z,32800.00
2023-04-04T15:10:43.827Z,34464.00
2023-04-04T15:11:43.768Z,41312.00
2023-04-04T15:12:43.800Z,44320.00
2023-04-04T15:13:43.748Z,48800.00
2023-04-04T15:14:43.763Z,43360.00
2023-04-04T15:15:43.772Z,28128.00
2023-04-04T15:16:43.787Z,12884.00
2023-04-04T15:17:43.747Z,7216.00
2023-04-04T15:18:43.736Z,6676.00
2023-04-04T15:19:43.721Z,6504.00
2023-04-04T15:20:44.067Z,6424.00
2023-04-04T16:12:29.206Z,19680.00
2023-04-04T16:13:29.175Z,22176.00
2023-04-04T16:14:29.175Z,23040.00
2023-04-04T16:15:29.163Z,23136.00
2023-04-04T16:16:29.208Z,22944.00
2023-04-04T16:17:29.829Z,22752.00
2023-04-04T16:18:29.084Z,22496.00
2023-04-04T16:19:29.061Z,22208.00
2023-04-04T16:20:29.065Z,22048.00
2023-04-04T16:21:29.049Z,21664.00
2023-04-04T16:22:29.044Z,20672.00
2023-04-04T16:23:29.013Z,18528.00
2023-04-04T16:24:29.000Z,16736.00
2023-04-04T16:25:29.013Z,14336.00
2023-04-04T16:26:29.005Z,12328.00
2023-04-04T16:27:28.969Z,13124.00
2023-04-04T16:28:28.972Z,14688.00
2023-04-04T16:29:28.924Z,15520.00
2023-04-04T16:30:53.626Z,16896.00
2023-04-04T16:33:02.769Z,15776.00
2023-04-04T16:34:02.698Z,14656.00
2023-04-04T16:35:02.710Z,12792.00
2023-04-04T16:38:29.000Z,7208.00
2023-04-04T16:39:28.941Z,6272.00
